Time;durP1;ratioP1;P1;durP2;ratioP2;P2;SDS_P1;SDS_P2;PMS_P1;PMS_P2;Temp;Humidity;BMP_temperature;BMP_pressure;BME280_temperature;BME280_humidity;BME280_pressure;Samples;Min_cycle;Max_cycle;Signal;HPM_P1;HPM_P2
2023/07/06 00:01:13;;;;;;;9.18;4.63;;;20.60;99.90;;;;;;5029998;28;20052;-76
2023/07/06 00:04:18;;;;;;;7.90;4.40;;;20.60;99.90;;;;;;5030075;28;20049;-76
2023/07/06 00:07:22;;;;;;;8.82;5.15;;;20.50;99.90;;;;;;5029913;28;20048;-76
2023/07/06 00:10:26;;;;;;;7.97;4.57;;;20.40;99.90;;;;;;5029862;28;20052;-76
2023/07/06 00:13:32;;;;;;;10.52;4.40;;;20.30;99.90;;;;;;5017145;28;20064;-76
2023/07/06 00:16:41;;;;;;;9.75;4.78;;;20.20;99.90;;;;;;5018112;28;20049;-77
2023/07/06 00:19:47;;;;;;;11.13;5.10;;;20.10;99.90;;;;;;5017911;28;20068;-76
2023/07/06 00:22:51;;;;;;;9.27;4.70;;;20.10;99.90;;;;;;5029767;28;20056;-76
2023/07/06 00:25:55;;;;;;;10.23;5.30;;;20.00;99.90;;;;;;5029717;28;20049;-76
2023/07/06 00:28:59;;;;;;;10.93;4.60;;;20.00;99.90;;;;;;5029926;28;20048;-76
2023/07/06 00:32:15;;;;;;;9.82;4.93;;;20.00;99.90;;;;;;5029420;28;20062;-76
2023/07/06 00:35:20;;;;;;;8.70;5.57;;;20.00;99.90;;;;;;5030095;28;20495;-76
2023/07/06 00:38:24;;;;;;;11.68;5.28;;;20.10;99.90;;;;;;5030078;28;20424;-76
2023/07/06 00:41:32;;;;;;;10.85;5.22;;;20.20;99.90;;;;;;5029166;28;20060;-77
2023/07/06 00:45:01;;;;;;;9.90;4.75;;;20.20;99.90;;;;;;5029614;28;20052;-76
2023/07/06 00:48:21;;;;;;;8.48;4.18;;;20.20;99.90;;;;;;5017469;28;20057;-76
2023/07/06 00:51:32;;;;;;;8.30;4.85;;;20.20;99.90;;;;;;5028960;28;20049;-76
2023/07/06 00:54:40;;;;;;;8.80;4.90;;;20.30;99.90;;;;;;5033225;28;20040;-77
2023/07/06 00:57:51;;;;;;;11.18;5.60;;;20.30;99.90;;;;;;5009614;28;20040;-76
2023/07/06 01:01:01;;;;;;;7.47;5.05;;;20.30;99.90;;;;;;5032461;28;20044;-76
2023/07/06 01:04:08;;;;;;;9.70;5.30;;;20.30;99.90;;;;;;5033136;28;20044;-76
2023/07/06 01:07:21;;;;;;;9.68;4.70;;;20.30;99.90;;;;;;5032613;28;20123;-77
2023/07/06 01:10:25;;;;;;;10.30;5.00;;;20.20;99.90;;;;;;5020169;28;20036;-76
2023/07/06 01:13:32;;;;;;;8.98;4.68;;;20.30;99.90;;;;;;5020272;28;20045;-77
2023/07/06 01:17:06;;;;;;;9.18;4.70;;;20.20;99.90;;;;;;5032877;28;20355;-76
2023/07/06 01:20:32;;;;;;;16.30;6.28;;;20.20;99.90;;;;;;5020636;28;20064;-77
2023/07/06 01:23:52;;;;;;;11.07;4.72;;;20.20;99.90;;;;;;5019995;28;20045;-76
2023/07/06 01:27:24;;;;;;;10.30;4.10;;;20.20;99.90;;;;;;5032637;28;20048;-77
2023/07/06 01:31:07;;;;;;;9.52;4.07;;;20.30;99.90;;;;;;5013854;28;20204;-76
2023/07/06 01:34:30;;;;;;;9.98;4.65;;;20.30;99.90;;;;;;5020976;28;20396;-77
2023/07/06 01:37:43;;;;;;;10.80;4.53;;;20.30;99.90;;;;;;5032576;28;20044;-76
2023/07/06 01:40:48;;;;;;;8.48;4.22;;;20.30;99.90;;;;;;5019850;28;20121;-76
2023/07/06 01:43:52;;;;;;;9.95;4.60;;;20.30;99.90;;;;;;5032500;28;20044;-75
2023/07/06 01:46:56;;;;;;;8.43;4.07;;;20.20;99.90;;;;;;5032150;28;20048;-76
2023/07/06 01:50:03;;;;;;;9.05;4.68;;;20.20;99.90;;;;;;5032394;28;20040;-75
2023/07/06 01:54:00;;;;;;;7.22;4.03;;;20.10;99.90;;;;;;5031261;28;20052;-76
2023/07/06 01:57:09;;;;;;;8.52;4.22;;;20.10;99.90;;;;;;5017117;28;20057;-74
2023/07/06 02:00:16;;;;;;;11.48;4.65;;;20.10;99.90;;;;;;5020266;28;20048;-76
2023/07/06 02:03:26;;;;;;;;;;;20.00;99.90;;;;;;5008469;28;20343;-76
2023/07/06 02:06:30;;;;;;;8.48;4.47;;;20.00;99.90;;;;;;5019783;28;20367;-76
2023/07/06 02:09:45;;;;;;;11.02;4.45;;;20.00;99.90;;;;;;5031900;28;20060;-75
2023/07/06 02:12:49;;;;;;;10.07;4.63;;;19.90;99.90;;;;;;5018652;28;20395;-76
2023/07/06 02:15:53;;;;;;;6.72;3.95;;;19.90;99.90;;;;;;5019415;28;20056;-76
2023/07/06 02:19:01;;;;;;;8.75;4.60;;;19.80;99.90;;;;;;5019091;28;20052;-76
2023/07/06 02:22:04;;;;;;;9.30;4.35;;;19.80;99.90;;;;;;5030785;28;20408;-76
2023/07/06 02:25:08;;;;;;;11.35;5.10;;;19.60;99.90;;;;;;5031160;28;20048;-77
2023/07/06 02:28:13;;;;;;;13.48;5.90;;;19.40;99.90;;;;;;5031460;28;20052;-76
2023/07/06 02:31:18;;;;;;;13.90;6.32;;;19.20;99.90;;;;;;5030733;28;20065;-76
2023/07/06 02:34:25;;;;;;;12.40;6.85;;;18.90;99.90;;;;;;5031179;28;20045;-76
2023/07/06 02:37:29;;;;;;;11.60;6.55;;;18.70;99.90;;;;;;5031358;28;20048;-75
2023/07/06 02:40:35;;;;;;;13.23;6.40;;;18.60;99.90;;;;;;5019438;28;20052;-76
2023/07/06 02:43:40;;;;;;;14.88;6.15;;;18.60;99.90;;;;;;5018884;28;20060;-76
2023/07/06 02:46:45;;;;;;;11.65;6.72;;;18.60;99.90;;;;;;5031210;28;20048;-76
2023/07/06 02:49:49;;;;;;;7.95;5.45;;;18.70;99.90;;;;;;5031063;28;20044;-76
2023/07/06 02:52:54;;;;;;;10.45;6.10;;;18.70;99.90;;;;;;5017749;28;20045;-76
2023/07/06 02:55:58;;;;;;;10.55;6.07;;;18.70;99.90;;;;;;5030593;28;20052;-76
2023/07/06 02:59:03;;;;;;;11.65;6.28;;;18.70;99.90;;;;;;5030858;28;20045;-76
2023/07/06 03:02:07;;;;;;;12.13;5.50;;;18.70;99.90;;;;;;5006871;28;20236;-76
2023/07/06 03:05:11;;;;;;;11.55;5.68;;;18.70;99.90;;;;;;5030712;28;20052;-76
2023/07/06 03:08:15;;;;;;;10.60;5.10;;;18.70;99.90;;;;;;5030444;28;20048;-76
2023/07/06 03:11:20;;;;;;;10.00;5.30;;;18.70;99.90;;;;;;5018472;28;20898;-75
2023/07/06 03:14:25;;;;;;;8.77;5.85;;;18.60;99.90;;;;;;5017685;28;20044;-76
2023/07/06 03:17:29;;;;;;;7.10;4.78;;;18.40;99.90;;;;;;5027564;28;20037;-75
2023/07/06 03:20:36;;;;;;;11.23;5.63;;;18.40;99.90;;;;;;5006712;28;20049;-75
2023/07/06 03:23:41;;;;;;;16.48;5.78;;;18.20;99.90;;;;;;5030058;28;20040;-76
2023/07/06 03:26:45;;;;;;;15.15;6.15;;;18.00;99.90;;;;;;5009646;28;20050;-75
2023/07/06 03:29:52;;;;;;;17.52;7.22;;;17.90;99.90;;;;;;4998258;28;20044;-75
2023/07/06 03:32:58;;;;;;;15.60;6.90;;;17.90;99.90;;;;;;5018450;28;20049;-75
2023/07/06 03:36:03;;;;;;;11.45;6.78;;;17.90;99.90;;;;;;5027873;28;20056;-75
2023/07/06 03:39:12;;;;;;;18.15;6.90;;;17.90;99.90;;;;;;5017794;28;20396;-75
2023/07/06 03:42:17;;;;;;;12.77;7.50;;;17.80;99.90;;;;;;5029591;28;20045;-75
2023/07/06 03:45:21;;;;;;;11.73;6.82;;;17.70;99.90;;;;;;5018164;28;20060;-75
2023/07/06 03:48:26;;;;;;;14.90;6.95;;;17.80;99.90;;;;;;5018324;28;20040;-75
2023/07/06 03:51:32;;;;;;;15.25;7.68;;;17.80;99.90;;;;;;5029863;28;20052;-75
2023/07/06 03:54:36;;;;;;;11.27;6.97;;;17.80;99.90;;;;;;5023745;28;20067;-75
2023/07/06 03:57:41;;;;;;;12.77;7.20;;;17.80;99.90;;;;;;5030081;28;20044;-74
2023/07/06 04:00:45;;;;;;;14.88;6.88;;;17.80;99.90;;;;;;5029955;28;20040;-74
2023/07/06 04:03:52;;;;;;;14.15;6.68;;;17.80;99.90;;;;;;5029833;28;20048;-75
2023/07/06 04:06:56;;;;;;;16.05;7.18;;;17.90;99.90;;;;;;5018053;28;20396;-75
2023/07/06 04:10:00;;;;;;;11.77;7.07;;;18.00;99.90;;;;;;5029838;28;20049;-75
2023/07/06 04:13:04;;;;;;;14.10;7.22;;;18.00;99.90;;;;;;5029107;28;20399;-74
2023/07/06 04:16:16;;;;;;;15.65;6.40;;;18.10;99.90;;;;;;5029700;28;20057;-75
2023/07/06 04:19:20;;;;;;;13.10;6.75;;;18.20;99.90;;;;;;5029611;28;20507;-75
2023/07/06 04:22:24;;;;;;;13.63;7.35;;;18.30;99.90;;;;;;5029308;28;20048;-75
2023/07/06 04:25:32;;;;;;;12.73;6.30;;;18.40;99.90;;;;;;5029887;28;20060;-75
2023/07/06 04:28:40;;;;;;;14.60;6.40;;;18.50;99.90;;;;;;5033244;28;20060;-74
2023/07/06 04:31:46;;;;;;;8.95;5.90;;;18.70;99.90;;;;;;5026467;28;20044;-74
2023/07/06 04:34:51;;;;;;;14.27;7.10;;;19.20;99.90;;;;;;5034055;28;20044;-74
2023/07/06 04:37:55;;;;;;;12.05;6.22;;;20.80;99.90;;;;;;5034199;28;20050;-74
2023/07/06 04:40:59;;;;;;;9.90;5.82;;;22.60;99.90;;;;;;5034001;28;20495;-75
2023/07/06 04:44:04;;;;;;;11.88;5.00;;;23.60;99.90;;;;;;5034027;28;20499;-76
2023/07/06 04:47:08;;;;;;;15.13;5.75;;;24.40;99.90;;;;;;5034449;28;20056;-75
2023/07/06 04:50:22;;;;;;;8.90;4.72;;;25.40;99.90;;;;;;5033450;28;20044;-75
2023/07/06 04:53:26;;;;;;;8.98;4.40;;;26.40;99.90;;;;;;5032073;28;20043;-75
2023/07/06 04:56:30;;;;;;;8.82;5.00;;;26.90;99.90;;;;;;5034163;28;20048;-75
2023/07/06 04:59:34;;;;;;;7.43;4.25;;;26.70;99.90;;;;;;5033426;28;20044;-75
2023/07/06 05:02:38;;;;;;;8.88;4.70;;;27.00;99.90;;;;;;5033206;28;20040;-75
2023/07/06 05:05:45;;;;;;;11.27;5.03;;;27.80;99.90;;;;;;5016680;28;20408;-75
2023/07/06 05:08:51;;;;;;;8.05;4.82;;;27.40;99.90;;;;;;5035071;28;20045;-76
2023/07/06 05:11:56;;;;;;;10.23;5.05;;;27.80;99.90;;;;;;5034254;28;20056;-75
2023/07/06 05:15:00;;;;;;;13.60;6.72;;;25.90;99.90;;;;;;5044107;28;20089;-76
2023/07/06 05:18:06;;;;;;;8.20;4.90;;;25.70;99.90;;;;;;5033281;28;20056;-76
2023/07/06 05:21:10;;;;;;;8.90;4.78;;;27.40;99.90;;;;;;5033251;28;20040;-76
2023/07/06 05:24:14;;;;;;;7.07;4.20;;;28.20;99.90;;;;;;5032948;28;20052;-76
2023/07/06 05:27:19;;;;;;;9.00;4.63;;;28.80;99.90;;;;;;5032927;28;20048;-76
2023/07/06 05:30:23;;;;;;;9.75;4.65;;;28.80;99.90;;;;;;5032907;28;20052;-76
2023/07/06 05:33:27;;;;;;;8.82;4.13;;;29.10;99.90;;;;;;5032075;28;20053;-76
2023/07/06 05:36:31;;;;;;;7.30;4.50;;;29.40;99.90;;;;;;5032864;28;20045;-76
2023/07/06 05:39:35;;;;;;;9.15;3.90;;;29.70;99.90;;;;;;5032703;28;20487;-77
2023/07/06 05:42:40;;;;;;;11.40;4.55;;;30.10;99.90;;;;;;5032563;28;20052;-77
2023/07/06 05:45:47;;;;;;;9.30;4.57;;;27.60;99.90;;;;;;5033405;28;20048;-74
2023/07/06 05:48:53;;;;;;;9.38;4.85;;;25.40;99.90;;;;;;5034368;28;20048;-76
2023/07/06 05:51:56;;;;;;;7.90;5.07;;;25.10;99.90;;;;;;5033258;28;20068;-75
2023/07/06 05:55:01;;;;;;;10.15;4.63;;;24.60;99.90;;;;;;5032519;28;20516;-76
2023/07/06 05:58:06;;;;;;;10.93;5.05;;;25.70;99.90;;;;;;5020068;28;20037;-76
2023/07/06 06:01:11;;;;;;;8.00;3.67;;;27.30;99.90;;;;;;5032819;28;20563;-76
2023/07/06 06:04:15;;;;;;;7.47;4.63;;;28.60;99.90;;;;;;5020877;28;20052;-76
2023/07/06 06:07:19;;;;;;;8.90;4.05;;;29.70;99.90;;;;;;5033955;28;20052;-75
2023/07/06 06:10:26;;;;;;;9.57;3.63;;;27.80;99.90;;;;;;5032522;28;20083;-75
2023/07/06 06:13:30;;;;;;;8.20;3.90;;;28.00;99.90;;;;;;5027619;28;20060;-76
2023/07/06 06:16:35;;;;;;;8.25;3.47;;;29.00;99.90;;;;;;5031777;28;20487;-76
2023/07/06 06:19:39;;;;;;;8.85;3.65;;;30.20;99.90;;;;;;5032660;28;20045;-75
2023/07/06 06:22:43;;;;;;;9.63;4.95;;;30.40;99.90;;;;;;5031857;28;20499;-75
2023/07/06 06:25:47;;;;;;;9.02;5.00;;;29.10;99.90;;;;;;5032407;28;20396;-76
2023/07/06 06:28:52;;;;;;;11.52;4.68;;;28.90;99.90;;;;;;5032873;28;20057;-75
2023/07/06 06:31:55;;;;;;;13.57;5.40;;;26.80;99.90;;;;;;5031184;28;20087;-75
2023/07/06 06:35:00;;;;;;;10.63;4.45;;;25.00;99.90;;;;;;5020122;28;20380;-74
2023/07/06 06:38:05;;;;;;;11.05;5.40;;;25.20;99.90;;;;;;5028851;28;20037;-76
2023/07/06 06:41:10;;;;;;;11.43;4.15;;;25.40;99.90;;;;;;5026460;28;20037;-76
2023/07/06 06:44:14;;;;;;;7.63;4.65;;;27.20;99.90;;;;;;5026933;28;20040;-76
2023/07/06 06:47:19;;;;;;;7.28;4.13;;;28.90;99.90;;;;;;5029809;28;20056;-75
2023/07/06 06:50:23;;;;;;;11.63;4.10;;;30.60;99.90;;;;;;5030331;28;20052;-75
2023/07/06 06:53:27;;;;;;;11.48;4.20;;;31.30;99.90;;;;;;5030605;28;20049;-75
2023/07/06 06:56:32;;;;;;;8.98;4.18;;;31.90;99.90;;;;;;5021350;28;20052;-76
2023/07/06 06:59:36;;;;;;;14.05;4.05;;;32.20;99.40;;;;;;5029099;28;20376;-75
2023/07/06 07:02:41;;;;;;;7.40;4.32;;;32.30;99.20;;;;;;5024718;28;20056;-78
2023/07/06 07:05:45;;;;;;;10.13;4.88;;;29.80;99.90;;;;;;5030214;28;20041;-77
2023/07/06 07:08:49;;;;;;;9.93;4.38;;;29.50;99.90;;;;;;5023332;28;20060;-77
2023/07/06 07:11:53;;;;;;;10.05;4.10;;;29.00;99.90;;;;;;5024553;28;20037;-74
2023/07/06 07:14:57;;;;;;;17.25;4.55;;;28.60;99.90;;;;;;5027770;28;20044;-77
2023/07/06 07:18:02;;;;;;;8.57;4.30;;;27.60;99.90;;;;;;5031365;28;20049;-76
2023/07/06 07:21:07;;;;;;;6.07;3.97;;;28.30;99.90;;;;;;5030509;28;20383;-76
2023/07/06 07:24:11;;;;;;;12.75;4.43;;;29.00;99.90;;;;;;5029403;28;20036;-76
2023/07/06 07:27:16;;;;;;;8.45;4.00;;;28.90;99.90;;;;;;5027209;28;20048;-77
2023/07/06 07:30:20;;;;;;;8.05;4.28;;;30.40;99.90;;;;;;5028935;28;20056;-77
2023/07/06 07:33:27;;;;;;;8.88;3.67;;;31.20;99.90;;;;;;5022747;28;20049;-77
2023/07/06 07:36:35;;;;;;;14.65;4.18;;;31.20;99.80;;;;;;5030604;28;20033;-77
2023/07/06 07:39:39;;;;;;;6.03;3.97;;;31.30;99.20;;;;;;5030841;28;20045;-76
2023/07/06 07:42:46;;;;;;;9.60;4.20;;;30.80;99.90;;;;;;5029643;28;20331;-75
2023/07/06 07:45:50;;;;;;;6.97;3.72;;;31.10;99.90;;;;;;5014255;28;20049;-76
2023/07/06 07:48:55;;;;;;;6.18;3.58;;;33.30;98.90;;;;;;5019358;28;20503;-76
2023/07/06 07:51:59;;;;;;;11.63;3.58;;;33.10;97.90;;;;;;5024391;28;20529;-78
2023/07/06 07:55:04;;;;;;;12.82;3.72;;;33.90;97.60;;;;;;5026944;28;20048;-78
2023/07/06 07:58:08;;;;;;;8.10;3.30;;;32.40;97.90;;;;;;5011413;28;20052;-70
2023/07/06 08:01:14;;;;;;;7.20;3.88;;;33.90;97.20;;;;;;5019834;28;20040;-76
2023/07/06 08:04:20;;;;;;;9.23;4.07;;;34.80;96.40;;;;;;5037647;28;20052;-79
2023/07/06 08:07:25;;;;;;;7.20;3.50;;;35.90;95.40;;;;;;5023917;28;20432;-76
2023/07/06 08:10:29;;;;;;;8.50;3.83;;;36.90;94.80;;;;;;5032998;28;20121;-77
2023/07/06 08:13:34;;;;;;;7.88;3.53;;;36.90;94.00;;;;;;5022846;28;20116;-77
2023/07/06 08:16:42;;;;;;;9.13;3.88;;;37.40;93.70;;;;;;5029203;28;20384;-77
2023/07/06 08:19:47;;;;;;;11.00;3.78;;;37.50;93.10;;;;;;5030514;28;20057;-78
2023/07/06 08:22:51;;;;;;;7.55;3.40;;;36.60;94.40;;;;;;5026832;28;20056;-77
2023/07/06 08:25:56;;;;;;;5.95;3.80;;;38.20;93.30;;;;;;5019634;28;20048;-75
2023/07/06 08:29:00;;;;;;;4.55;3.30;;;38.60;91.90;;;;;;5032709;28;20587;-77
2023/07/06 08:32:04;;;;;;;7.00;3.25;;;39.40;91.80;;;;;;5032886;28;20046;-78
2023/07/06 08:35:09;;;;;;;5.05;3.20;;;40.20;90.90;;;;;;5030314;28;20040;-74
2023/07/06 08:38:14;;;;;;;7.07;3.00;;;41.30;90.60;;;;;;5031284;28;20052;-76
2023/07/06 08:41:41;;;;;;;4.88;2.72;;;42.20;89.40;;;;;;5028666;28;20041;-75
2023/07/06 08:44:50;;;;;;;3.88;2.78;;;42.10;85.50;;;;;;5026653;28;20040;-78
2023/07/06 08:47:56;;;;;;;4.43;2.95;;;42.60;86.60;;;;;;5031051;28;20048;-81
2023/07/06 08:51:17;;;;;;;7.28;2.90;;;43.00;83.50;;;;;;5029277;28;20056;-75
2023/07/06 08:54:24;;;;;;;6.07;2.60;;;43.90;82.90;;;;;;5036142;28;20037;-75
2023/07/06 08:57:30;;;;;;;6.22;3.00;;;44.50;81.20;;;;;;5025599;28;20037;-74
2023/07/06 09:00:35;;;;;;;4.95;2.67;;;44.80;79.50;;;;;;5031879;28;20045;-77
2023/07/06 09:03:51;;;;;;;6.35;2.80;;;45.10;78.50;;;;;;5029576;28;20052;-77
2023/07/06 09:06:59;;;;;;;9.25;2.92;;;45.40;77.70;;;;;;5029747;28;20506;-78
2023/07/06 09:10:11;;;;;;;6.37;2.60;;;45.80;77.20;;;;;;5029568;28;20052;-78
2023/07/06 09:13:25;;;;;;;3.30;2.45;;;46.00;75.80;;;;;;5029238;28;20040;-77
2023/07/06 09:16:34;;;;;;;7.82;3.17;;;46.30;75.40;;;;;;5032192;28;20041;-78
2023/07/06 09:19:40;;;;;;;5.38;2.92;;;46.20;74.50;;;;;;5031369;28;20032;-76
2023/07/06 09:22:48;;;;;;;5.55;2.70;;;46.40;72.90;;;;;;5030306;28;20395;-79
2023/07/06 09:25:54;;;;;;;4.95;2.72;;;46.90;74.00;;;;;;5024324;28;20629;-76
2023/07/06 09:29:18;;;;;;;4.20;2.47;;;47.70;72.30;;;;;;5030435;28;20032;-78
2023/07/06 09:32:22;;;;;;;9.32;3.03;;;47.10;71.80;;;;;;5032203;28;20071;-77
2023/07/06 09:35:29;;;;;;;6.60;3.10;;;47.40;72.50;;;;;;5021536;28;20040;-81
2023/07/06 09:38:43;;;;;;;7.78;3.15;;;47.50;70.40;;;;;;5025878;28;20064;-76
2023/07/06 09:41:47;;;;;;;5.40;3.25;;;45.10;71.80;;;;;;5018230;28;20044;-74
2023/07/06 09:44:52;;;;;;;7.72;3.20;;;43.30;74.10;;;;;;5022039;28;20032;-78
2023/07/06 09:48:05;;;;;;;5.55;3.40;;;41.90;74.50;;;;;;5036958;28;20570;-79
2023/07/06 09:51:13;;;;;;;7.93;3.20;;;40.80;76.10;;;;;;5030203;28;20610;-79
2023/07/06 09:54:23;;;;;;;9.05;3.20;;;40.10;75.90;;;;;;5032951;28;20048;-79
2023/07/06 09:57:33;;;;;;;6.63;3.60;;;39.60;77.40;;;;;;5030445;28;20048;-79
2023/07/06 10:00:50;;;;;;;11.15;3.22;;;39.10;78.20;;;;;;5025505;28;20049;-79
2023/07/06 10:04:04;;;;;;;6.90;3.22;;;38.80;79.40;;;;;;5034662;28;20072;-79
2023/07/06 10:07:15;;;;;;;7.60;3.20;;;40.20;78.70;;;;;;5033792;28;20049;-78
2023/07/06 10:10:43;;;;;;;5.78;3.30;;;42.90;75.30;;;;;;5027113;28;20037;-81
2023/07/06 10:13:58;;;;;;;5.35;3.05;;;44.30;76.20;;;;;;5034855;28;20056;-77
2023/07/06 10:17:27;;;;;;;5.10;3.25;;;41.30;74.50;;;;;;5036142;28;20044;-78
2023/07/06 10:20:47;;;;;;;5.75;3.17;;;42.50;75.30;;;;;;5031701;28;20079;-75
2023/07/06 10:24:01;;;;;;;7.95;3.47;;;42.90;73.40;;;;;;5019571;28;20491;-80
2023/07/06 10:27:13;;;;;;;5.47;3.20;;;42.40;72.70;;;;;;5037139;28;20044;-78
2023/07/06 10:30:23;;;;;;;5.43;3.10;;;39.70;74.40;;;;;;5019971;28;20056;-76
2023/07/06 10:33:43;;;;;;;5.43;3.40;;;41.20;75.30;;;;;;5025135;28;20048;-78
2023/07/06 10:36:48;;;;;;;6.18;3.63;;;39.50;76.10;;;;;;5025812;28;20048;-79
2023/07/06 10:40:00;;;;;;;8.80;3.55;;;37.00;79.40;;;;;;5019674;28;20044;-74
2023/07/06 10:43:13;;;;;;;7.88;4.10;;;37.60;77.50;;;;;;5027115;28;20045;-80
2023/07/06 10:46:33;;;;;;;6.40;3.92;;;36.40;80.90;;;;;;5027689;28;20044;-80
2023/07/06 10:50:03;;;;;;;9.27;3.80;;;35.40;81.70;;;;;;5031583;28;20037;-79
2023/07/06 10:53:33;;;;;;;8.18;3.80;;;35.50;83.30;;;;;;5026433;28;20057;-81
2023/07/06 10:56:42;;;;;;;10.75;3.85;;;35.90;84.20;;;;;;5016883;28;20052;-75
2023/07/06 10:59:51;;;;;;;6.57;3.80;;;35.90;83.60;;;;;;5031526;28;20048;-76
2023/07/06 11:02:56;;;;;;;6.20;3.97;;;34.90;83.00;;;;;;5034179;28;20048;-78
2023/07/06 11:06:13;;;;;;;5.40;3.60;;;34.90;84.50;;;;;;5028653;28;20129;-79
2023/07/06 11:09:17;;;;;;;6.32;3.65;;;35.50;84.40;;;;;;5033077;28;20056;-78
2023/07/06 11:12:23;;;;;;;6.18;4.00;;;36.50;83.90;;;;;;5030616;28;20053;-78
2023/07/06 11:15:46;;;;;;;14.40;4.38;;;37.40;83.40;;;;;;5014588;28;20376;-77
2023/07/06 11:18:52;;;;;;;21.40;4.60;;;37.70;82.50;;;;;;5025427;28;20042;-80
2023/07/06 11:22:03;;;;;;;7.53;4.13;;;37.70;80.70;;;;;;5025753;28;20395;-80
2023/07/06 11:25:11;;;;;;;6.13;3.42;;;37.30;80.50;;;;;;5026320;28;20044;-78
2023/07/06 11:28:22;;;;;;;6.95;3.67;;;36.70;80.80;;;;;;5035513;28;20036;-79
2023/07/06 11:31:45;;;;;;;6.18;4.05;;;36.50;84.00;;;;;;5037258;28;20040;-80
2023/07/06 11:35:09;;;;;;;9.10;4.57;;;36.50;83.70;;;;;;5029747;28;20056;-77
2023/07/06 11:38:32;;;;;;;9.88;3.47;;;36.30;83.90;;;;;;5034181;28;20392;-79
2023/07/06 11:41:53;;;;;;;5.88;3.97;;;35.90;85.30;;;;;;5029847;28;20048;-78
2023/07/06 11:45:04;;;;;;;8.65;3.65;;;35.60;84.80;;;;;;5027962;28;20046;-80
2023/07/06 11:48:10;;;;;;;10.68;4.20;;;34.90;84.40;;;;;;5028197;28;20044;-81
2023/07/06 11:51:15;;;;;;;11.27;4.07;;;34.30;87.40;;;;;;5042635;28;20039;-78
2023/07/06 11:58:04;;;;;;;7.55;3.85;;;34.00;89.80;;;;;;5038086;28;20052;-77
2023/07/06 12:01:20;;;;;;;9.73;3.70;;;34.60;89.30;;;;;;5018093;28;20418;-77
2023/07/06 12:04:26;;;;;;;7.75;4.00;;;35.90;88.60;;;;;;5025807;28;20526;-77
2023/07/06 12:07:32;;;;;;;8.95;4.13;;;35.50;86.00;;;;;;5029481;28;20056;-77
2023/07/06 12:10:39;;;;;;;10.02;4.15;;;35.80;87.20;;;;;;5030568;28;20036;-77
2023/07/06 12:13:45;;;;;;;7.00;3.40;;;35.70;85.70;;;;;;5023188;28;20037;-79
2023/07/06 12:16:51;;;;;;;6.75;3.72;;;35.60;86.50;;;;;;5021410;28;20057;-79
2023/07/06 12:19:57;;;;;;;7.57;3.83;;;36.10;86.80;;;;;;5034628;28;20048;-80
2023/07/06 12:23:01;;;;;;;8.15;3.92;;;35.10;85.70;;;;;;5024289;28;20040;-75
2023/07/06 12:26:11;;;;;;;9.40;4.63;;;33.90;87.10;;;;;;5033438;28;20044;-75
2023/07/06 12:29:18;;;;;;;10.02;3.88;;;33.40;87.00;;;;;;5032262;28;20052;-76
2023/07/06 12:32:23;;;;;;;10.45;4.18;;;32.60;88.40;;;;;;5029653;28;20048;-76
2023/07/06 12:35:29;;;;;;;11.00;4.10;;;33.00;88.90;;;;;;5027716;28;20408;-80
2023/07/06 12:38:35;;;;;;;8.25;4.00;;;33.80;88.10;;;;;;5023938;28;20052;-80
2023/07/06 12:41:40;;;;;;;9.43;4.43;;;33.90;89.40;;;;;;5026800;28;20040;-80
2023/07/06 12:44:50;;;;;;;11.00;3.92;;;34.30;87.50;;;;;;5036468;28;20045;-80
2023/07/06 12:47:57;;;;;;;6.78;4.65;;;34.30;88.10;;;;;;5031807;28;20036;-80
2023/07/06 12:51:09;;;;;;;6.53;3.78;;;34.40;87.10;;;;;;5031662;28;20548;-81
2023/07/06 12:54:14;;;;;;;9.40;4.30;;;34.20;88.10;;;;;;5026428;28;20048;-80
2023/07/06 12:57:25;;;;;;;7.18;4.38;;;33.60;88.80;;;;;;5041880;28;20399;-80
2023/07/06 13:00:33;;;;;;;10.70;4.13;;;33.50;88.80;;;;;;5036440;28;20049;-80
2023/07/06 13:03:56;;;;;;;8.30;4.07;;;33.60;87.50;;;;;;5036973;28;20036;-81
2023/07/06 13:07:07;;;;;;;9.73;4.40;;;33.60;88.10;;;;;;5022983;28;20053;-79
2023/07/06 13:10:29;;;;;;;;;;;33.50;89.40;;;;;;5031351;28;20041;-81
2023/07/06 13:13:36;;;;;;;7.57;4.38;;;33.50;89.70;;;;;;5036379;28;19916;-77
2023/07/06 13:16:43;;;;;;;11.95;4.80;;;33.40;90.00;;;;;;5026160;28;20040;-81
2023/07/06 13:19:46;;;;;;;7.28;4.40;;;33.20;90.40;;;;;;5020586;28;20040;-80
2023/07/06 13:22:51;;;;;;;24.10;6.05;;;33.10;91.60;;;;;;5040172;28;20055;-77
2023/07/06 13:25:55;;;;;;;11.80;5.50;;;32.90;95.70;;;;;;5039369;28;20052;-73
2023/07/06 13:29:01;;;;;;;11.00;5.63;;;32.30;94.80;;;;;;5020800;28;20053;-75
2023/07/06 13:32:10;;;;;;;9.02;5.53;;;31.30;95.40;;;;;;5025625;28;20060;-76
2023/07/06 13:35:16;;;;;;;15.13;5.82;;;31.20;96.50;;;;;;5024376;28;20048;-75
2023/07/06 13:38:20;;;;;;;9.38;4.82;;;31.60;96.70;;;;;;5039340;28;20044;-77
2023/07/06 13:41:28;;;;;;;9.95;5.38;;;32.00;95.80;;;;;;5027053;28;20056;-77
2023/07/06 13:44:31;;;;;;;9.60;4.60;;;31.70;96.50;;;;;;5034865;28;20044;-78
2023/07/06 13:47:36;;;;;;;10.27;5.18;;;31.00;97.20;;;;;;5035867;28;20040;-78
2023/07/06 13:50:41;;;;;;;8.57;4.50;;;30.70;96.90;;;;;;5029141;28;20047;-76
2023/07/06 13:53:50;;;;;;;12.18;5.25;;;30.50;97.30;;;;;;5031275;28;20272;-76
2023/07/06 13:56:57;;;;;;;11.80;5.68;;;30.50;97.70;;;;;;5031786;28;20056;-77
2023/07/06 14:00:01;;;;;;;9.75;5.13;;;30.30;98.30;;;;;;5042020;28;20040;-76
2023/07/06 14:03:08;;;;;;;10.18;5.30;;;30.20;98.60;;;;;;5030166;28;20056;-75
2023/07/06 14:06:37;;;;;;;14.68;5.90;;;29.90;99.10;;;;;;5035514;28;20044;-80
2023/07/06 14:09:40;;;;;;;12.57;5.90;;;29.60;99.90;;;;;;5015584;28;20049;-77
2023/07/06 14:12:52;;;;;;;11.10;5.97;;;29.80;99.90;;;;;;5024602;28;20044;-76
2023/07/06 14:15:57;;;;;;;14.88;6.10;;;30.30;99.70;;;;;;5043755;28;20408;-74
2023/07/06 14:19:01;;;;;;;9.07;5.00;;;30.70;99.40;;;;;;5035457;28;20044;-75
2023/07/06 14:22:05;;;;;;;8.80;5.22;;;31.20;97.90;;;;;;5035569;28;20073;-76
2023/07/06 14:25:24;;;;;;;12.07;5.35;;;31.30;97.70;;;;;;5043279;28;20047;-76
2023/07/06 14:28:30;;;;;;;8.40;4.70;;;31.60;98.00;;;;;;5028822;28;20052;-76
2023/07/06 14:31:34;;;;;;;9.25;5.93;;;31.80;97.10;;;;;;5027965;28;20044;-77
2023/07/06 14:34:38;;;;;;;12.80;5.50;;;32.10;97.00;;;;;;5015210;28;20392;-76
2023/07/06 14:37:42;;;;;;;11.18;4.97;;;32.20;96.40;;;;;;5031780;28;20048;-77
2023/07/06 14:40:48;;;;;;;8.13;4.90;;;32.40;95.40;;;;;;5031141;28;20040;-79
2023/07/06 14:43:52;;;;;;;11.93;4.70;;;32.40;95.20;;;;;;5046976;28;20071;-79
2023/07/06 14:46:56;;;;;;;8.23;5.03;;;32.40;94.20;;;;;;5032907;28;20121;-80
2023/07/06 14:50:00;;;;;;;8.50;4.53;;;32.10;94.80;;;;;;5029645;28;20053;-78
2023/07/06 14:53:04;;;;;;;8.02;4.70;;;31.90;95.80;;;;;;5029781;28;20049;-78
2023/07/06 14:56:08;;;;;;;8.85;4.65;;;31.80;95.80;;;;;;5040078;28;20047;-78
2023/07/06 14:59:12;;;;;;;8.13;4.63;;;31.80;96.00;;;;;;5039050;28;20043;-79
2023/07/06 15:02:16;;;;;;;7.30;4.50;;;31.80;95.40;;;;;;5034534;28;20395;-78
2023/07/06 15:05:22;;;;;;;36.55;6.85;;;31.70;95.50;;;;;;5030291;28;20052;-74
2023/07/06 15:08:25;;;;;;;19.75;7.47;;;31.60;99.90;;;;;;5019862;28;20048;-76
2023/07/06 15:11:29;;;;;;;10.32;5.68;;;31.20;99.90;;;;;;5024680;28;20056;-77
2023/07/06 15:14:33;;;;;;;15.35;5.85;;;30.90;99.90;;;;;;5032768;28;20396;-75
2023/07/06 15:17:38;;;;;;;7.80;5.03;;;30.60;99.90;;;;;;5031182;28;20060;-79
2023/07/06 15:20:42;;;;;;;8.15;4.93;;;30.40;99.90;;;;;;5031727;28;20064;-79
2023/07/06 15:23:48;;;;;;;7.55;5.22;;;30.20;99.90;;;;;;5031144;28;20056;-79
2023/07/06 15:26:52;;;;;;;10.07;5.72;;;29.70;99.90;;;;;;5031471;28;20045;-78
2023/07/06 15:29:56;;;;;;;13.32;5.75;;;29.30;99.90;;;;;;5032823;28;20396;-75
2023/07/06 15:32:59;;;;;;;12.05;6.20;;;28.90;99.90;;;;;;5031990;28;20052;-79
2023/07/06 15:36:04;;;;;;;11.18;5.70;;;28.70;99.90;;;;;;5032119;28;20045;-76
2023/07/06 15:39:08;;;;;;;12.70;5.97;;;28.60;99.90;;;;;;5032434;28;20041;-75
2023/07/06 15:42:12;;;;;;;9.45;5.65;;;28.50;99.90;;;;;;5031391;28;20037;-76
2023/07/06 15:45:16;;;;;;;10.05;5.78;;;28.30;99.90;;;;;;5032103;28;20049;-76
2023/07/06 15:48:20;;;;;;;12.73;5.50;;;28.20;99.90;;;;;;5019872;28;20048;-75
2023/07/06 15:51:25;;;;;;;8.02;5.65;;;28.10;99.90;;;;;;5031283;28;20049;-76
2023/07/06 15:54:29;;;;;;;11.10;5.55;;;28.30;99.90;;;;;;5031157;28;20049;-77
2023/07/06 15:57:33;;;;;;;10.30;5.30;;;28.40;99.90;;;;;;5031763;28;20491;-77
2023/07/06 16:00:37;;;;;;;8.90;5.15;;;28.40;99.90;;;;;;5031344;28;20049;-77
2023/07/06 16:03:41;;;;;;;10.05;5.57;;;28.60;99.90;;;;;;5031140;28;20045;-77
2023/07/06 16:06:45;;;;;;;12.40;5.60;;;28.70;99.90;;;;;;5031230;28;20041;-77
2023/07/06 16:09:49;;;;;;;8.80;5.13;;;28.80;99.90;;;;;;5030829;28;20040;-77
2023/07/06 16:12:53;;;;;;;8.02;4.75;;;28.90;99.90;;;;;;5031923;28;20041;-76
2023/07/06 16:15:57;;;;;;;11.05;5.53;;;29.10;99.90;;;;;;5031453;28;20047;-78